Time;durP1;ratioP1;P1;durP2;ratioP2;P2;SDS_P1;SDS_P2;PMS_P1;PMS_P2;Temp;Humidity;BMP_temperature;BMP_pressure;BME280_temperature;BME280_humidity;BME280_pressure;Samples;Min_cycle;Max_cycle;Signal;HPM_P1;HPM_P2
2023/01/27 00:00:05;;;;;;;6.85;2.33;;;18.10;38.70;;;;;;5012699;28;20240;-69
2023/01/27 00:02:34;;;;;;;5.13;1.80;;;18.00;38.60;;;;;;5012413;28;20217;-69
2023/01/27 00:05:01;;;;;;;5.65;1.90;;;18.00;38.60;;;;;;5012541;28;20586;-68
2023/01/27 00:07:28;;;;;;;5.55;1.83;;;18.00;38.60;;;;;;5012813;28;20461;-68
2023/01/27 00:09:55;;;;;;;5.97;1.90;;;18.00;38.60;;;;;;5012516;28;20577;-69
2023/01/27 00:15:10;;;;;;;5.53;1.70;;;18.00;38.60;;;;;;5012281;28;20189;-69
2023/01/27 00:17:39;;;;;;;6.40;2.00;;;18.00;38.60;;;;;;5012484;28;20279;-69
2023/01/27 00:20:08;;;;;;;6.68;2.00;;;18.00;38.60;;;;;;5012481;28;20193;-69
2023/01/27 00:25:20;;;;;;;4.18;1.50;;;18.00;38.60;;;;;;5012513;28;20651;-69
2023/01/27 00:27:47;;;;;;;5.50;1.60;;;18.00;38.60;;;;;;5012135;28;20646;-68
2023/01/27 00:30:14;;;;;;;5.60;1.95;;;18.00;38.60;;;;;;5012467;28;20209;-68
2023/01/27 00:35:28;;;;;;;4.75;1.70;;;18.00;38.60;;;;;;5012405;28;20763;-69
2023/01/27 00:37:56;;;;;;;5.35;1.65;;;18.00;38.50;;;;;;5012663;28;20227;-69
2023/01/27 00:40:23;;;;;;;4.10;1.52;;;17.90;38.40;;;;;;5012228;28;20249;-69
2023/01/27 00:42:50;;;;;;;3.40;1.42;;;18.00;38.50;;;;;;5012488;28;20217;-68
2023/01/27 00:48:04;;;;;;;3.78;1.58;;;17.90;38.40;;;;;;5012056;28;20224;-69
2023/01/27 00:50:31;;;;;;;5.72;1.70;;;17.90;38.30;;;;;;5015168;28;20217;-69
2023/01/27 00:53:01;;;;;;;5.55;1.80;;;17.90;38.30;;;;;;5015765;28;20628;-69
2023/01/27 00:55:28;;;;;;;5.43;1.88;;;17.90;38.30;;;;;;5015597;28;20855;-69
2023/01/27 00:57:56;;;;;;;6.00;1.23;;;17.90;38.30;;;;;;5015949;28;20239;-69
2023/01/27 01:00:23;;;;;;;4.35;1.33;;;17.90;38.30;;;;;;5015774;28;20186;-69
2023/01/27 01:02:50;;;;;;;4.40;1.50;;;17.90;38.30;;;;;;5015352;28;20280;-68
2023/01/27 01:05:19;;;;;;;3.45;1.50;;;17.90;38.90;;;;;;5015466;28;20825;-69
2023/01/27 01:07:46;;;;;;;2.90;1.38;;;17.90;38.20;;;;;;5015189;28;20221;-69
2023/01/27 01:10:13;;;;;;;3.75;1.50;;;17.90;38.20;;;;;;5015512;28;20672;-69
2023/01/27 01:12:40;;;;;;;2.58;1.30;;;17.80;38.10;;;;;;5015627;28;20236;-69
2023/01/27 01:15:08;;;;;;;4.35;1.70;;;17.80;38.10;;;;;;5015368;28;20252;-69
2023/01/27 01:17:35;;;;;;;4.22;1.58;;;17.80;38.10;;;;;;5015528;28;20217;-70
2023/01/27 01:20:02;;;;;;;3.67;1.42;;;17.80;38.10;;;;;;5015058;28;20186;-69
2023/01/27 01:22:31;;;;;;;3.95;1.38;;;17.80;38.00;;;;;;5015469;28;20637;-69
2023/01/27 01:24:58;;;;;;;4.03;1.52;;;17.80;38.00;;;;;;5015027;28;20659;-69
2023/01/27 01:27:26;;;;;;;4.32;1.70;;;17.80;38.00;;;;;;5015339;28;20225;-69
2023/01/27 01:29:53;;;;;;;3.15;1.33;;;17.80;38.00;;;;;;5029446;28;20196;-69
2023/01/27 01:32:20;;;;;;;4.18;1.45;;;17.80;38.00;;;;;;5020395;28;20320;-68
2023/01/27 01:34:47;;;;;;;3.60;1.40;;;17.80;37.90;;;;;;5054826;28;20191;-68
2023/01/27 01:37:14;;;;;;;5.63;1.75;;;17.80;37.90;;;;;;5054698;28;20223;-69
2023/01/27 01:39:43;;;;;;;3.38;1.50;;;17.80;37.90;;;;;;5054812;28;20641;-69
2023/01/27 01:42:10;;;;;;;2.35;1.25;;;17.80;37.90;;;;;;5054852;28;20216;-69
2023/01/27 01:44:43;;;;;;;2.95;1.30;;;17.80;37.90;;;;;;5054736;28;20242;-69
2023/01/27 01:47:15;;;;;;;3.67;1.50;;;17.70;37.80;;;;;;5054471;28;20215;-69
2023/01/27 01:49:42;;;;;;;3.58;1.50;;;17.80;37.90;;;;;;5054128;28;20195;-68
2023/01/27 01:52:13;;;;;;;5.47;1.60;;;17.70;37.80;;;;;;5054805;28;20235;-68
2023/01/27 01:54:45;;;;;;;2.78;1.10;;;17.70;37.80;;;;;;5054166;28;20188;-69
2023/01/27 01:57:18;;;;;;;4.53;1.35;;;17.70;38.50;;;;;;5054445;28;20273;-68
2023/01/27 01:59:50;;;;;;;3.53;1.40;;;17.70;37.80;;;;;;5054325;28;20249;-70
2023/01/27 02:02:21;;;;;;;4.28;1.20;;;17.70;37.80;;;;;;5053760;28;20376;-69
2023/01/27 02:04:54;;;;;;;3.35;1.40;;;17.70;37.80;;;;;;5054244;28;20236;-69
2023/01/27 02:07:25;;;;;;;3.63;1.13;;;17.70;37.80;;;;;;5055089;28;20215;-69
2023/01/27 02:09:56;;;;;;;3.35;1.38;;;17.70;37.80;;;;;;5054281;28;20183;-68
2023/01/27 02:12:23;;;;;;;3.58;1.00;;;17.70;37.80;;;;;;5054040;28;20277;-69
2023/01/27 02:14:50;;;;;;;2.05;1.10;;;17.70;37.70;;;;;;5053758;28;20618;-69
2023/01/27 02:17:18;;;;;;;3.17;1.25;;;17.70;37.70;;;;;;5054862;28;20265;-68
2023/01/27 02:19:54;;;;;;;4.80;1.40;;;17.70;37.70;;;;;;5053655;28;20611;-69
2023/01/27 02:22:29;;;;;;;1.52;1.20;;;17.70;37.70;;;;;;5054032;28;20557;-69
2023/01/27 02:25:06;;;;;;;2.78;1.02;;;17.70;37.70;;;;;;5052471;28;20191;-69
2023/01/27 02:27:35;;;;;;;2.38;1.13;;;17.70;37.70;;;;;;5054007;28;20238;-69
2023/01/27 02:30:02;;;;;;;3.45;1.55;;;17.60;37.50;;;;;;5053515;28;20184;-70
2023/01/27 02:32:29;;;;;;;2.22;0.85;;;17.70;37.60;;;;;;5053878;28;20284;-69
2023/01/27 02:34:57;;;;;;;3.97;1.10;;;17.60;37.50;;;;;;5053622;28;20261;-69
2023/01/27 02:37:25;;;;;;;2.63;1.10;;;17.60;37.50;;;;;;5053803;28;20219;-68
2023/01/27 02:39:54;;;;;;;1.85;1.00;;;17.60;37.50;;;;;;5052410;28;20195;-68
2023/01/27 02:42:21;;;;;;;1.77;1.00;;;17.60;37.50;;;;;;5053928;28;20215;-68
2023/01/27 02:44:50;;;;;;;3.13;1.13;;;17.60;37.50;;;;;;5054098;28;20191;-69
2023/01/27 02:47:17;;;;;;;2.65;1.02;;;17.60;37.40;;;;;;5053419;28;20219;-69
2023/01/27 02:49:44;;;;;;;2.25;1.08;;;17.60;37.40;;;;;;5053380;28;20188;-69
2023/01/27 02:52:11;;;;;;;1.60;0.82;;;17.60;37.40;;;;;;5053367;28;20642;-69
2023/01/27 02:54:38;;;;;;;2.50;1.13;;;17.60;37.40;;;;;;5053306;28;20188;-69
2023/01/27 02:57:05;;;;;;;3.30;1.30;;;17.60;37.30;;;;;;5053360;28;20275;-69
2023/01/27 02:59:32;;;;;;;2.80;1.27;;;17.60;37.40;;;;;;5052812;28;20218;-68
2023/01/27 03:02:01;;;;;;;2.28;1.13;;;17.60;37.40;;;;;;5053343;28;20231;-68
2023/01/27 03:04:28;;;;;;;1.45;0.95;;;17.60;37.40;;;;;;5052978;28;20231;-68
2023/01/27 03:06:55;;;;;;;1.42;1.05;;;17.60;37.30;;;;;;5053344;28;20215;-68
2023/01/27 03:09:22;;;;;;;1.52;0.93;;;17.50;37.20;;;;;;5053170;28;20188;-68
2023/01/27 03:20:05;;;;;;;2.25;0.93;;;17.50;37.20;;;;;;5052940;28;20183;-70
2023/01/27 03:22:32;;;;;;;2.85;1.20;;;17.50;37.20;;;;;;5052602;28;20648;-69
2023/01/27 03:24:59;;;;;;;2.35;1.10;;;17.50;37.20;;;;;;5052503;28;20652;-69
2023/01/27 03:27:27;;;;;;;2.92;1.20;;;17.50;37.20;;;;;;5052825;28;20220;-69
2023/01/27 03:29:56;;;;;;;2.67;1.30;;;17.50;37.20;;;;;;5052769;28;20526;-69
2023/01/27 03:32:27;;;;;;;3.50;1.08;;;17.50;37.20;;;;;;5052296;28;20732;-69
2023/01/27 03:34:56;;;;;;;2.63;1.33;;;17.50;37.20;;;;;;5052324;28;20245;-69
2023/01/27 03:48:27;;;;;;;2.67;1.10;;;17.50;37.20;;;;;;5052528;28;20244;-69
2023/01/27 03:50:57;;;;;;;2.92;1.02;;;17.50;37.20;;;;;;5052105;28;20646;-69
2023/01/27 03:53:24;;;;;;;2.70;1.10;;;17.40;37.10;;;;;;5052300;28;20215;-69
2023/01/27 03:55:52;;;;;;;2.10;1.30;;;17.40;37.10;;;;;;5052012;28;20604;-69
2023/01/27 03:58:22;;;;;;;3.28;1.10;;;17.50;37.20;;;;;;5052765;28;20215;-70
2023/01/27 04:00:52;;;;;;;1.17;1.02;;;17.50;37.20;;;;;;5051950;28;20596;-69
2023/01/27 04:08:51;;;;;;;2.67;1.23;;;17.40;37.10;;;;;;5051994;28;20688;-69
2023/01/27 04:14:05;;;;;;;2.20;1.17;;;17.40;37.10;;;;;;5052194;28;20187;-69
2023/01/27 04:16:33;;;;;;;1.73;1.00;;;17.40;37.10;;;;;;5051869;28;20221;-68
2023/01/27 04:19:00;;;;;;;3.50;1.23;;;17.40;37.10;;;;;;5051813;28;20727;-68
2023/01/27 04:21:28;;;;;;;3.30;1.20;;;17.40;37.10;;;;;;5052135;28;20219;-69
2023/01/27 04:23:56;;;;;;;1.20;0.95;;;17.40;37.70;;;;;;5052893;28;20192;-69
2023/01/27 04:26:24;;;;;;;2.88;1.42;;;17.40;37.00;;;;;;5055968;28;20750;-69
2023/01/27 04:28:51;;;;;;;1.85;1.10;;;17.40;37.10;;;;;;5056072;28;20187;-69
2023/01/27 04:31:18;;;;;;;2.30;1.20;;;17.40;37.70;;;;;;5055885;28;20245;-70
2023/01/27 04:33:46;;;;;;;1.80;1.10;;;17.40;37.10;;;;;;5055975;28;20253;-69
2023/01/27 04:36:13;;;;;;;2.15;1.00;;;17.40;37.10;;;;;;5055791;28;20199;-69
2023/01/27 04:38:41;;;;;;;3.17;1.15;;;17.30;37.00;;;;;;5056055;28;20247;-68
2023/01/27 04:41:08;;;;;;;3.08;1.20;;;17.40;37.00;;;;;;5055756;28;20258;-69
2023/01/27 04:43:36;;;;;;;2.50;1.30;;;17.30;37.00;;;;;;5055522;28;20286;-68
2023/01/27 04:46:03;;;;;;;1.63;0.85;;;17.30;37.00;;;;;;5055836;28;20245;-69
2023/01/27 04:48:31;;;;;;;3.38;1.13;;;17.30;37.00;;;;;;5055621;28;20188;-69
2023/01/27 04:50:58;;;;;;;1.58;1.02;;;17.30;37.00;;;;;;5055683;28;20233;-69
2023/01/27 04:53:25;;;;;;;1.27;1.00;;;17.40;37.00;;;;;;5055777;28;20231;-69
2023/01/27 04:56:02;;;;;;;1.70;1.40;;;17.30;36.90;;;;;;5055567;28;20195;-69
2023/01/27 04:58:29;;;;;;;2.33;1.00;;;17.30;37.00;;;;;;5055637;28;20285;-68
2023/01/27 05:00:56;;;;;;;1.75;1.10;;;17.30;37.00;;;;;;5055422;28;20188;-68
2023/01/27 05:03:23;;;;;;;1.60;1.20;;;17.30;37.00;;;;;;5055189;28;20223;-69
2023/01/27 05:05:51;;;;;;;3.33;1.42;;;17.30;37.00;;;;;;5055307;28;20253;-69
2023/01/27 05:08:18;;;;;;;1.20;0.95;;;17.30;37.00;;;;;;5055201;28;20262;-68
2023/01/27 05:10:46;;;;;;;1.20;1.10;;;17.30;37.00;;;;;;5054943;28;20218;-68
2023/01/27 05:13:15;;;;;;;1.77;1.10;;;17.30;37.00;;;;;;5055046;28;20754;-70
2023/01/27 05:15:42;;;;;;;1.30;1.20;;;17.30;37.00;;;;;;5054992;28;20187;-69
2023/01/27 05:18:09;;;;;;;2.42;1.08;;;17.30;37.00;;;;;;5054845;28;20766;-69
2023/01/27 05:20:36;;;;;;;1.15;1.00;;;17.30;37.00;;;;;;5055157;28;20286;-69
2023/01/27 05:25:48;;;;;;;1.95;1.17;;;17.30;37.00;;;;;;5055030;28;20699;-69
2023/01/27 05:28:16;;;;;;;1.90;1.17;;;17.30;37.00;;;;;;5054571;28;20227;-71
2023/01/27 05:30:43;;;;;;;2.63;1.00;;;17.30;37.00;;;;;;5054609;28;20188;-69
2023/01/27 05:33:10;;;;;;;2.63;1.20;;;17.30;37.00;;;;;;5054802;28;20231;-70
2023/01/27 05:35:38;;;;;;;2.70;1.10;;;17.30;37.00;;;;;;5053594;28;20184;-70
2023/01/27 05:38:05;;;;;;;2.25;1.23;;;17.30;37.00;;;;;;5054998;28;20219;-69
2023/01/27 05:40:32;;;;;;;3.08;1.00;;;17.30;37.00;;;;;;5054397;28;20241;-69
2023/01/27 05:42:59;;;;;;;1.80;1.15;;;17.30;37.00;;;;;;5054474;28;20766;-69
2023/01/27 05:45:27;;;;;;;1.45;0.90;;;17.20;36.90;;;;;;5054583;28;20580;-69
2023/01/27 05:47:54;;;;;;;3.03;1.00;;;17.30;37.00;;;;;;5054474;28;20223;-69
2023/01/27 05:50:22;;;;;;;1.30;0.80;;;17.30;37.00;;;;;;5054240;28;20195;-69
2023/01/27 05:52:49;;;;;;;2.17;1.20;;;17.30;37.00;;;;;;5054292;28;20235;-69
2023/01/27 05:55:16;;;;;;;1.30;0.82;;;17.30;37.00;;;;;;5054450;28;20196;-70
2023/01/27 05:57:43;;;;;;;1.88;1.10;;;17.30;37.10;;;;;;5054448;28;20273;-69
2023/01/27 06:00:11;;;;;;;1.40;0.90;;;17.30;37.00;;;;;;5054323;28;20533;-69
2023/01/27 06:02:40;;;;;;;1.85;0.95;;;17.40;37.20;;;;;;5054186;28;20219;-68
2023/01/27 06:05:07;;;;;;;3.80;1.30;;;17.40;37.20;;;;;;5053990;28;20297;-71
2023/01/27 06:07:34;;;;;;;1.60;0.85;;;17.40;37.20;;;;;;5054398;28;20273;-68
2023/01/27 06:10:02;;;;;;;1.58;1.27;;;17.40;37.20;;;;;;5054360;28;20188;-69
2023/01/27 06:12:29;;;;;;;1.40;1.00;;;17.40;37.20;;;;;;5054149;28;20289;-69
2023/01/27 06:14:59;;;;;;;1.95;1.00;;;17.50;37.20;;;;;;5054126;28;20199;-68
2023/01/27 06:17:26;;;;;;;1.60;0.93;;;17.50;37.30;;;;;;5053913;28;20212;-68
2023/01/27 06:19:54;;;;;;;1.58;1.10;;;17.50;37.20;;;;;;5054004;28;20241;-69
2023/01/27 06:22:21;;;;;;;1.95;1.10;;;17.50;37.30;;;;;;5053956;28;20219;-69
2023/01/27 06:24:48;;;;;;;1.02;0.90;;;17.50;37.90;;;;;;5054406;28;20200;-69
2023/01/27 06:27:15;;;;;;;1.35;0.98;;;17.60;37.40;;;;;;5053799;28;20261;-69
2023/01/27 06:29:43;;;;;;;1.10;1.00;;;17.60;37.40;;;;;;5053786;28;20249;-70
2023/01/27 06:32:10;;;;;;;1.83;0.98;;;17.60;37.40;;;;;;5053605;28;20265;-69
2023/01/27 06:34:37;;;;;;;1.50;1.08;;;17.60;37.40;;;;;;5053760;28;20234;-69
2023/01/27 06:37:06;;;;;;;1.45;1.20;;;17.60;37.50;;;;;;5053666;28;20269;-69
2023/01/27 06:39:33;;;;;;;1.52;1.00;;;17.60;37.50;;;;;;5053580;28;20620;-69
2023/01/27 06:42:00;;;;;;;2.65;1.00;;;17.70;37.50;;;;;;5053865;28;20216;-69
2023/01/27 06:44:27;;;;;;;1.33;1.08;;;17.70;37.50;;;;;;5053202;28;20187;-69
2023/01/27 06:46:54;;;;;;;1.05;0.90;;;17.70;37.60;;;;;;5053254;28;20732;-69
2023/01/27 06:49:22;;;;;;;1.77;1.00;;;17.70;37.60;;;;;;5053346;28;20237;-70
2023/01/27 06:51:49;;;;;;;1.30;0.90;;;17.70;37.60;;;;;;5052105;28;20266;-69
2023/01/27 06:54:18;;;;;;;3.22;1.15;;;17.70;37.60;;;;;;5052959;28;20215;-69
2023/01/27 06:56:45;;;;;;;0.70;0.70;;;17.70;37.60;;;;;;5052917;28;20588;-69
2023/01/27 06:59:12;;;;;;;1.05;0.82;;;17.80;37.70;;;;;;5052855;28;20658;-69
2023/01/27 07:01:39;;;;;;;1.00;0.90;;;17.80;37.70;;;;;;5052870;28;20722;-69
2023/01/27 07:04:06;;;;;;;0.95;0.90;;;17.80;37.80;;;;;;5052942;28;20748;-69
2023/01/27 07:06:33;;;;;;;1.02;0.80;;;17.80;37.80;;;;;;5052775;28;20249;-69
2023/01/27 07:09:00;;;;;;;1.73;0.85;;;17.80;37.80;;;;;;5053081;28;20191;-69
2023/01/27 07:11:29;;;;;;;0.88;0.85;;;17.80;37.80;;;;;;5053199;28;20192;-68
2023/01/27 07:13:56;;;;;;;1.92;0.82;;;17.80;37.80;;;;;;5052952;28;20223;-69
2023/01/27 07:16:23;;;;;;;1.15;0.70;;;17.90;37.80;;;;;;5052873;28;20188;-69
2023/01/27 07:18:50;;;;;;;1.70;0.80;;;17.80;37.80;;;;;;5052616;28;20191;-69
2023/01/27 07:21:17;;;;;;;0.80;0.80;;;17.90;37.80;;;;;;5052909;28;20531;-68
2023/01/27 07:23:44;;;;;;;1.08;0.95;;;17.90;37.80;;;;;;5052758;28;20288;-69
2023/01/27 07:26:12;;;;;;;0.82;0.73;;;17.90;37.80;;;;;;5052928;28;20187;-69
2023/01/27 07:28:41;;;;;;;0.85;0.82;;;17.90;37.80;;;;;;5052934;28;20212;-69
2023/01/27 07:31:08;;;;;;;1.30;0.80;;;17.90;37.80;;;;;;5052754;28;20199;-68
2023/01/27 07:33:36;;;;;;;0.93;0.80;;;17.90;37.80;;;;;;5052481;28;20305;-69
2023/01/27 07:36:03;;;;;;;1.15;0.98;;;17.90;37.80;;;;;;5052356;28;20715;-69
2023/01/27 07:38:30;;;;;;;1.05;0.70;;;18.00;37.90;;;;;;5052729;28;20265;-69
2023/01/27 07:40:57;;;;;;;1.23;1.10;;;18.00;37.90;;;;;;5052527;28;20192;-69
2023/01/27 07:43:25;;;;;;;1.48;1.00;;;18.00;37.90;;;;;;5051234;28;20223;-68
2023/01/27 07:45:56;;;;;;;1.27;0.90;;;17.90;37.80;;;;;;5052500;28;20184;-69
2023/01/27 07:48:23;;;;;;;2.47;0.90;;;18.00;37.90;;;;;;5052385;28;20273;-69
2023/01/27 07:50:50;;;;;;;1.42;1.02;;;18.00;37.80;;;;;;5052363;28;20195;-68
2023/01/27 07:53:18;;;;;;;2.67;0.80;;;18.00;37.80;;;;;;5052505;28;20685;-71
2023/01/27 07:55:45;;;;;;;1.05;0.95;;;18.00;37.80;;;;;;5019762;28;20698;-69
2023/01/27 07:58:12;;;;;;;3.70;1.10;;;18.00;37.80;;;;;;5010523;28;20228;-71
2023/01/27 08:00:41;;;;;;;1.48;0.98;;;18.10;37.90;;;;;;5034239;28;20200;-69
2023/01/27 08:03:20;;;;;;;1.58;1.23;;;18.00;37.80;;;;;;5023732;28;20224;-70
2023/01/27 08:05:47;;;;;;;2.28;1.40;;;18.10;37.90;;;;;;5028963;28;20196;-71
2023/01/27 08:08:14;;;;;;;1.30;1.10;;;18.10;37.70;;;;;;5029147;28;20224;-72
2023/01/27 08:10:45;;;;;;;1.50;1.00;;;18.20;37.80;;;;;;5028921;28;20235;-71
2023/01/27 08:13:13;;;;;;;1.60;1.08;;;18.20;37.80;;;;;;5028503;28;20236;-70
2023/01/27 08:15:40;;;;;;;2.20;1.10;;;18.20;37.80;;;;;;5038197;28;20191;-71
2023/01/27 08:18:09;;;;;;;1.50;1.05;;;18.20;37.80;;;;;;4999702;28;20225;-71
2023/01/27 08:20:36;;;;;;;3.00;0.95;;;18.20;37.80;;;;;;5013546;28;20248;-69
2023/01/27 08:23:03;;;;;;;1.00;0.80;;;18.30;37.80;;;;;;5030822;28;20220;-70
2023/01/27 08:25:31;;;;;;;1.08;0.82;;;18.30;37.80;;;;;;5033353;28;20535;-70
2023/01/27 08:27:58;;;;;;;1.67;1.15;;;18.30;37.80;;;;;;5028311;28;20270;-71
2023/01/27 08:30:25;;;;;;;1.38;1.00;;;18.30;37.70;;;;;;5027054;28;20660;-70
2023/01/27 08:32:52;;;;;;;4.72;1.00;;;18.30;37.70;;;;;;5027848;28;20231;-70
2023/01/27 08:35:21;;;;;;;1.77;1.20;;;18.30;37.70;;;;;;5028162;28;20201;-70
2023/01/27 08:37:50;;;;;;;2.08;1.02;;;18.30;37.80;;;;;;5035923;28;20223;-72
2023/01/27 08:40:18;;;;;;;0.93;0.88;;;18.40;37.80;;;;;;5027804;28;20196;-70
2023/01/27 08:42:45;;;;;;;3.75;1.00;;;18.40;38.40;;;;;;5027794;28;20255;-70
2023/01/27 08:45:13;;;;;;;1.73;1.00;;;18.40;37.70;;;;;;5028030;28;20204;-70
2023/01/27 08:47:40;;;;;;;1.23;0.82;;;18.40;37.60;;;;;;5027622;28;20279;-70
2023/01/27 08:50:08;;;;;;;1.33;0.90;;;18.40;37.60;;;;;;5029248;28;20197;-71
2023/01/27 08:52:42;;;;;;;1.88;0.90;;;18.50;37.70;;;;;;5027273;28;20297;-71
2023/01/27 08:55:09;;;;;;;5.60;1.00;;;18.50;37.80;;;;;;5035583;28;20216;-72
2023/01/27 08:57:37;;;;;;;2.28;0.90;;;18.50;37.70;;;;;;5027070;28;20229;-71
2023/01/27 09:00:06;;;;;;;1.80;0.80;;;18.50;37.60;;;;;;4992385;28;20620;-71
2023/01/27 09:02:33;;;;;;;2.20;0.73;;;18.50;37.60;;;;;;5027386;28;20240;-69
2023/01/27 09:05:01;;;;;;;1.83;0.90;;;18.60;37.70;;;;;;5027294;28;20247;-71
2023/01/27 09:07:28;;;;;;;3.65;0.90;;;18.60;37.70;;;;;;5027440;28;20643;-71
2023/01/27 09:09:56;;;;;;;2.08;0.80;;;18.60;37.70;;;;;;5027115;28;20701;-71
2023/01/27 09:12:24;;;;;;;1.40;0.75;;;18.60;37.70;;;;;;5029577;28;20270;-70
2023/01/27 09:14:51;;;;;;;1.70;0.90;;;18.60;37.60;;;;;;5019693;28;20239;-71
2023/01/27 09:17:18;;;;;;;2.70;0.82;;;18.60;37.50;;;;;;5028789;28;20274;-68
2023/01/27 09:19:45;;;;;;;2.78;0.85;;;18.60;37.50;;;;;;5030918;28;20243;-70
2023/01/27 09:22:12;;;;;;;2.60;1.10;;;18.60;37.50;;;;;;5030823;28;20228;-72
2023/01/27 09:24:40;;;;;;;1.13;0.90;;;18.70;37.50;;;;;;5030663;28;20258;-72
2023/01/27 09:27:09;;;;;;;1.23;1.00;;;18.60;37.40;;;;;;5030754;28;20224;-73
2023/01/27 09:29:36;;;;;;;2.20;0.90;;;18.70;37.50;;;;;;5030528;28;20196;-74
2023/01/27 09:32:03;;;;;;;1.20;0.98;;;18.70;37.40;;;;;;5030308;28;20259;-72
2023/01/27 09:34:30;;;;;;;2.58;0.93;;;18.70;37.30;;;;;;5030484;28;20722;-73
2023/01/27 09:37:01;;;;;;;2.22;1.00;;;18.70;37.20;;;;;;5030819;28;20663;-74
2023/01/27 09:39:29;;;;;;;1.20;0.68;;;18.70;37.20;;;;;;5029857;28;20200;-74
2023/01/27 09:42:30;;;;;;;0.82;0.68;;;18.80;37.10;;;;;;5030516;28;20200;-74
2023/01/27 09:45:20;;;;;;;1.38;0.80;;;18.70;37.00;;;;;;5018895;28;20744;-73
2023/01/27 09:48:12;;;;;;;1.45;0.90;;;18.80;37.10;;;;;;5030199;28;20232;-73
2023/01/27 09:50:47;;;;;;;2.33;0.80;;;18.80;37.00;;;;;;5036802;28;20189;-71
2023/01/27 09:53:40;;;;;;;2.63;0.77;;;18.80;37.00;;;;;;5030377;28;20231;-73
2023/01/27 09:56:13;;;;;;;1.38;1.00;;;18.80;36.90;;;;;;5030257;28;20213;-73
2023/01/27 09:58:59;;;;;;;1.60;0.90;;;18.80;36.80;;;;;;5033081;28;20733;-72
2023/01/27 10:01:33;;;;;;;1.98;1.00;;;18.80;37.00;;;;;;5031474;28;20200;-72
2023/01/27 10:04:27;;;;;;;1.83;0.90;;;18.90;37.10;;;;;;5033208;28;20298;-71
2023/01/27 10:07:22;;;;;;;2.38;0.75;;;18.90;37.10;;;;;;5033369;28;20193;-73
2023/01/27 10:10:08;;;;;;;3.28;0.90;;;18.90;37.10;;;;;;5025015;28;20211;-69
2023/01/27 10:12:54;;;;;;;1.45;1.08;;;18.90;37.00;;;;;;5030937;28;20270;-69
2023/01/27 10:15:38;;;;;;;1.27;0.90;;;18.90;37.10;;;;;;5032735;28;20220;-69
2023/01/27 10:18:17;;;;;;;2.15;0.90;;;18.90;37.10;;;;;;5026116;28;20212;-70
2023/01/27 10:20:54;;;;;;;3.83;1.10;;;18.90;37.20;;;;;;5028132;28;20564;-70
2023/01/27 10:23:31;;;;;;;3.47;1.17;;;19.00;37.30;;;;;;5031585;28;20306;-69
2023/01/27 10:26:09;;;;;;;1.42;0.63;;;19.00;37.90;;;;;;5030910;28;20196;-68
2023/01/27 10:28:39;;;;;;;5.05;1.10;;;19.00;37.30;;;;;;5032209;28;20250;-71
2023/01/27 10:31:15;;;;;;;2.35;0.95;;;19.10;37.50;;;;;;5031659;28;20199;-71
2023/01/27 10:33:50;;;;;;;4.43;1.00;;;19.10;37.50;;;;;;5025547;28;20716;-70
2023/01/27 10:36:26;;;;;;;1.50;1.10;;;19.10;37.40;;;;;;5031849;28;20214;-71
2023/01/27 10:39:02;;;;;;;1.27;0.80;;;19.10;37.30;;;;;;5032006;28;20227;-71
2023/01/27 10:41:36;;;;;;;1.30;1.00;;;19.10;37.30;;;;;;5031252;28;20196;-71
2023/01/27 10:44:16;;;;;;;3.60;0.90;;;19.10;37.40;;;;;;5024724;28;20228;-71
2023/01/27 10:46:52;;;;;;;1.00;0.90;;;19.10;37.30;;;;;;5025633;28;20254;-70
2023/01/27 10:49:23;;;;;;;1.33;0.80;;;19.20;37.40;;;;;;5022074;28;20273;-72
2023/01/27 10:51:56;;;;;;;1.65;0.93;;;19.20;37.40;;;;;;5029540;28;20619;-71
2023/01/27 10:54:29;;;;;;;2.85;1.25;;;19.20;37.40;;;;;;5029659;28;20705;-71
2023/01/27 10:57:00;;;;;;;5.15;0.95;;;19.20;37.40;;;;;;5030796;28;20266;-71
2023/01/27 10:59:38;;;;;;;2.53;0.80;;;19.20;37.40;;;;;;5030166;28;20620;-71
2023/01/27 11:02:16;;;;;;;5.25;1.10;;;19.20;37.40;;;;;;5030557;28;20898;-72
2023/01/27 11:04:46;;;;;;;5.43;1.27;;;19.20;37.40;;;;;;5028037;28;20251;-70
2023/01/27 11:07:18;;;;;;;3.42;1.17;;;19.30;37.50;;;;;;5016642;28;20621;-70
2023/01/27 11:09:52;;;;;;;3.55;1.10;;;19.30;37.50;;;;;;5028372;28;20200;-71
2023/01/27 11:12:29;;;;;;;1.63;0.90;;;19.30;37.40;;;;;;5033246;28;20188;-71
2023/01/27 11:14:58;;;;;;;1.17;0.82;;;19.30;37.50;;;;;;5030245;28;20654;-71
2023/01/27 11:17:31;;;;;;;3.03;0.95;;;19.30;37.50;;;;;;5030401;28;20262;-71
2023/01/27 11:20:06;;;;;;;2.22;1.00;;;19.30;37.50;;;;;;5030109;28;20192;-70
2023/01/27 11:22:37;;;;;;;1.02;0.82;;;19.30;37.50;;;;;;5022695;28;21176;-71
2023/01/27 11:25:14;;;;;;;1.52;0.77;;;19.30;37.50;;;;;;5032530;28;20619;-70
2023/01/27 11:28:11;;;;;;;1.52;0.80;;;19.30;37.50;;;;;;5029500;28;20262;-71
2023/01/27 11:30:45;;;;;;;4.15;1.60;;;19.30;37.50;;;;;;5007763;28;20259;-70
2023/01/27 11:33:23;;;;;;;2.40;1.00;;;19.30;37.50;;;;;;5008236;28;20282;-71
2023/01/27 11:35:51;;;;;;;2.33;1.08;;;19.30;37.50;;;;;;5012071;28;20220;-71
2023/01/27 11:38:21;;;;;;;2.35;1.05;;;19.30;37.50;;;;;;5011984;28;20777;-70
2023/01/27 11:40:51;;;;;;;1.45;1.00;;;19.30;37.50;;;;;;5008812;28;20259;-71
2023/01/27 11:43:20;;;;;;;1.92;1.20;;;19.30;37.40;;;;;;5018947;28;20232;-71
2023/01/27 11:45:50;;;;;;;2.30;1.00;;;19.30;37.40;;;;;;5007011;28;20205;-69
2023/01/27 11:48:20;;;;;;;2.92;0.90;;;19.30;37.40;;;;;;5007422;28;20233;-69
2023/01/27 11:50:48;;;;;;;2.17;1.17;;;19.30;37.30;;;;;;5010176;28;20247;-69
2023/01/27 11:53:22;;;;;;;4.85;1.20;;;19.30;37.30;;;;;;5008227;28;20232;-70
2023/01/27 11:55:54;;;;;;;3.40;1.20;;;19.30;37.20;;;;;;5014471;28;20290;-69
2023/01/27 11:58:25;;;;;;;2.80;1.30;;;19.30;37.20;;;;;;5015695;28;20711;-71
2023/01/27 12:00:57;;;;;;;5.05;1.20;;;19.30;37.20;;;;;;5014031;28;21723;-70
2023/01/27 12:03:37;;;;;;;2.22;1.20;;;19.30;37.30;;;;;;5010357;28;20710;-69
2023/01/27 12:06:14;;;;;;;2.40;1.33;;;19.30;37.20;;;;;;5015157;28;20205;-69
2023/01/27 12:08:44;;;;;;;3.33;1.35;;;19.30;37.20;;;;;;5010614;28;20228;-68
2023/01/27 12:11:20;;;;;;;3.83;1.40;;;19.30;37.10;;;;;;5009243;28;20872;-69
2023/01/27 12:13:53;;;;;;;3.17;1.17;;;19.30;37.10;;;;;;5016640;28;20223;-70
2023/01/27 12:16:21;;;;;;;4.68;1.25;;;19.40;37.20;;;;;;5008654;28;20197;-69
2023/01/27 12:18:55;;;;;;;2.78;1.30;;;19.30;36.90;;;;;;5009024;28;20229;-69
2023/01/27 12:21:35;;;;;;;2.72;1.20;;;19.40;37.10;;;;;;5006199;28;20197;-70
2023/01/27 12:24:03;;;;;;;2.28;0.93;;;19.40;37.10;;;;;;5008444;28;20287;-69
2023/01/27 12:26:36;;;;;;;4.25;1.10;;;19.40;37.20;;;;;;5007564;28;20193;-69
2023/01/27 12:29:07;;;;;;;3.53;1.17;;;19.40;37.10;;;;;;5011998;28;20228;-68
2023/01/27 12:31:46;;;;;;;3.13;1.20;;;19.40;37.10;;;;;;5015235;28;20637;-69
2023/01/27 12:34:25;;;;;;;6.63;1.75;;;19.40;37.10;;;;;;5029227;28;20227;-69
2023/01/27 12:36:54;;;;;;;6.80;1.10;;;19.40;37.00;;;;;;5029434;28;20189;-72
2023/01/27 12:39:33;;;;;;;3.63;1.20;;;19.40;37.10;;;;;;5028704;28;20738;-71
2023/01/27 12:42:00;;;;;;;3.10;1.20;;;19.40;37.10;;;;;;5029718;28;20192;-69
2023/01/27 12:44:40;;;;;;;3.47;1.35;;;19.40;37.10;;;;;;5028903;28;20639;-69
2023/01/27 12:47:23;;;;;;;4.10;1.50;;;19.40;36.90;;;;;;5033391;28;20192;-69
2023/01/27 12:49:52;;;;;;;3.28;1.17;;;19.40;37.00;;;;;;5032121;28;20234;-69
2023/01/27 12:52:21;;;;;;;3.20;1.40;;;19.40;37.00;;;;;;5032995;28;20192;-70
2023/01/27 12:54:52;;;;;;;3.83;1.55;;;19.40;37.00;;;;;;5032929;28;20690;-69
2023/01/27 12:57:21;;;;;;;3.90;1.50;;;19.40;37.10;;;;;;5033405;28;20189;-69
2023/01/27 12:59:51;;;;;;;2.08;1.30;;;19.40;37.10;;;;;;5032626;28;20192;-69
2023/01/27 13:02:21;;;;;;;2.03;1.10;;;19.40;37.00;;;;;;5032500;28;20197;-69
2023/01/27 13:04:54;;;;;;;3.50;1.40;;;19.40;37.00;;;;;;5032382;28;20313;-72
2023/01/27 13:07:26;;;;;;;4.47;1.80;;;19.40;37.10;;;;;;5019505;28;20217;-71
2023/01/27 13:09:56;;;;;;;4.00;1.50;;;19.40;37.10;;;;;;5020926;28;20239;-69
2023/01/27 13:12:28;;;;;;;4.32;1.30;;;19.40;37.00;;;;;;5031255;28;20189;-69
2023/01/27 13:14:58;;;;;;;6.53;1.42;;;19.40;37.10;;;;;;5024015;28;20706;-68
2023/01/27 13:17:35;;;;;;;3.75;1.23;;;19.40;37.10;;;;;;5015366;28;20718;-69
2023/01/27 13:20:15;;;;;;;2.95;1.33;;;19.30;37.10;;;;;;5024669;28;20211;-69
2023/01/27 13:22:46;;;;;;;6.47;1.60;;;19.30;37.20;;;;;;5025351;28;20204;-71
2023/01/27 13:25:19;;;;;;;4.53;1.45;;;19.30;37.20;;;;;;5031254;28;20200;-68
2023/01/27 13:27:49;;;;;;;4.47;1.17;;;19.30;37.20;;;;;;5035706;28;20193;-71
2023/01/27 13:30:24;;;;;;;2.90;1.30;;;19.30;37.90;;;;;;5032571;28;20299;-72
2023/01/27 13:32:56;;;;;;;2.63;1.10;;;19.20;37.20;;;;;;5034067;28;20215;-68
2023/01/27 13:35:30;;;;;;;4.80;1.52;;;19.30;37.40;;;;;;5034095;28;20224;-69
2023/01/27 13:38:04;;;;;;;6.15;1.42;;;19.20;37.20;;;;;;5023140;28;20275;-71
2023/01/27 13:40:39;;;;;;;5.47;1.42;;;19.20;38.00;;;;;;5030695;28;20735;-71
2023/01/27 13:43:14;;;;;;;7.00;1.88;;;19.20;37.40;;;;;;5029865;28;20223;-71